sensor_id;sensor_type;location;lat;lon;timestamp;temperature;humidity
4058;DHT22;2044;48.692;9.020;2023-07-31T00:01:04;13.50;99.90
4058;DHT22;2044;48.692;9.020;2023-07-31T00:03:31;13.60;99.90
4058;DHT22;2044;48.692;9.020;2023-07-31T00:05:57;13.70;99.90
4058;DHT22;2044;48.692;9.020;2023-07-31T00:08:25;13.60;99.90
4058;DHT22;2044;48.692;9.020;2023-07-31T00:10:52;13.50;99.90
4058;DHT22;2044;48.692;9.020;2023-07-31T00:13:19;13.50;99.90
4058;DHT22;2044;48.692;9.020;2023-07-31T00:15:46;13.50;99.90
4058;DHT22;2044;48.692;9.020;2023-07-31T00:18:13;13.40;99.90
4058;DHT22;2044;48.692;9.020;2023-07-31T00:20:39;13.40;99.90
4058;DHT22;2044;48.692;9.020;2023-07-31T00:25:34;13.30;99.90
4058;DHT22;2044;48.692;9.020;2023-07-31T00:28:01;13.40;99.90
4058;DHT22;2044;48.692;9.020;2023-07-31T00:30:28;13.40;99.90
4058;DHT22;2044;48.692;9.020;2023-07-31T00:32:54;13.30;99.90
4058;DHT22;2044;48.692;9.020;2023-07-31T00:35:21;13.30;99.90
4058;DHT22;2044;48.692;9.020;2023-07-31T00:37:48;13.20;99.90
4058;DHT22;2044;48.692;9.020;2023-07-31T00:40:15;13.20;99.90
4058;DHT22;2044;48.692;9.020;2023-07-31T00:42:43;13.20;99.90
4058;DHT22;2044;48.692;9.020;2023-07-31T00:45:10;13.00;99.90
4058;DHT22;2044;48.692;9.020;2023-07-31T00:47:36;13.00;99.90
4058;DHT22;2044;48.692;9.020;2023-07-31T00:50:04;13.00;99.90
4058;DHT22;2044;48.692;9.020;2023-07-31T00:52:31;13.10;99.90
4058;DHT22;2044;48.692;9.020;2023-07-31T00:54:58;13.10;99.90
4058;DHT22;2044;48.692;9.020;2023-07-31T00:57:25;13.00;99.90
4058;DHT22;2044;48.692;9.020;2023-07-31T00:59:53;13.00;99.90
4058;DHT22;2044;48.692;9.020;2023-07-31T01:02:20;14.20;99.90
4058;DHT22;2044;48.692;9.020;2023-07-31T01:04:47;13.20;99.90
4058;DHT22;2044;48.692;9.020;2023-07-31T01:07:17;13.20;99.90
4058;DHT22;2044;48.692;9.020;2023-07-31T01:10:03;13.20;99.90
4058;DHT22;2044;48.692;9.020;2023-07-31T01:12:31;13.30;99.90
4058;DHT22;2044;48.692;9.020;2023-07-31T01:15:07;13.40;99.90
4058;DHT22;2044;48.692;9.020;2023-07-31T01:17:36;13.30;99.90
4058;DHT22;2044;48.692;9.020;2023-07-31T01:20:11;13.30;99.90
4058;DHT22;2044;48.692;9.020;2023-07-31T01:22:52;13.20;99.90
4058;DHT22;2044;48.692;9.020;2023-07-31T01:25:33;13.20;99.90
4058;DHT22;2044;48.692;9.020;2023-07-31T01:28:09;13.20;99.90
4058;DHT22;2044;48.692;9.020;2023-07-31T01:30:40;13.40;99.90
4058;DHT22;2044;48.692;9.020;2023-07-31T01:33:08;13.50;99.90
4058;DHT22;2044;48.692;9.020;2023-07-31T01:38:03;13.50;99.90
4058;DHT22;2044;48.692;9.020;2023-07-31T01:40:30;13.50;99.90
4058;DHT22;2044;48.692;9.020;2023-07-31T01:42:57;13.40;99.90
4058;DHT22;2044;48.692;9.020;2023-07-31T01:45:25;13.20;99.90
4058;DHT22;2044;48.692;9.020;2023-07-31T01:47:52;13.20;99.90
4058;DHT22;2044;48.692;9.020;2023-07-31T01:52:46;12.80;99.90
4058;DHT22;2044;48.692;9.020;2023-07-31T01:55:13;12.90;99.90
4058;DHT22;2044;48.692;9.020;2023-07-31T01:57:40;12.80;99.90
4058;DHT22;2044;48.692;9.020;2023-07-31T02:00:07;12.90;99.90
4058;DHT22;2044;48.692;9.020;2023-07-31T02:02:35;12.80;99.90
4058;DHT22;2044;48.692;9.020;2023-07-31T02:05:02;12.80;99.90
4058;DHT22;2044;48.692;9.020;2023-07-31T02:07:29;12.70;99.90
4058;DHT22;2044;48.692;9.020;2023-07-31T02:09:56;12.60;99.90
4058;DHT22;2044;48.692;9.020;2023-07-31T02:12:23;12.80;99.90
4058;DHT22;2044;48.692;9.020;2023-07-31T02:14:49;13.00;99.90
4058;DHT22;2044;48.692;9.020;2023-07-31T02:17:16;13.10;99.90
4058;DHT22;2044;48.692;9.020;2023-07-31T02:19:44;13.20;99.90
4058;DHT22;2044;48.692;9.020;2023-07-31T02:22:11;13.30;99.90
4058;DHT22;2044;48.692;9.020;2023-07-31T02:24:38;13.40;99.90
4058;DHT22;2044;48.692;9.020;2023-07-31T02:27:05;13.40;99.90
4058;DHT22;2044;48.692;9.020;2023-07-31T02:29:31;13.40;99.90
4058;DHT22;2044;48.692;9.020;2023-07-31T02:31:58;13.30;99.90
4058;DHT22;2044;48.692;9.020;2023-07-31T02:34:25;13.40;99.90
4058;DHT22;2044;48.692;9.020;2023-07-31T02:36:53;13.50;99.90
4058;DHT22;2044;48.692;9.020;2023-07-31T02:39:20;13.60;99.90
4058;DHT22;2044;48.692;9.020;2023-07-31T02:41:47;13.60;99.90
4058;DHT22;2044;48.692;9.020;2023-07-31T02:44:13;13.60;99.90
4058;DHT22;2044;48.692;9.020;2023-07-31T02:46:40;13.60;99.90
4058;DHT22;2044;48.692;9.020;2023-07-31T02:49:07;13.70;99.90
4058;DHT22;2044;48.692;9.020;2023-07-31T02:51:33;13.70;99.90
4058;DHT22;2044;48.692;9.020;2023-07-31T02:54:01;13.80;99.90
4058;DHT22;2044;48.692;9.020;2023-07-31T02:56:28;13.70;99.90
4058;DHT22;2044;48.692;9.020;2023-07-31T02:58:55;14.20;99.90
4058;DHT22;2044;48.692;9.020;2023-07-31T03:01:21;13.70;99.90
4058;DHT22;2044;48.692;9.020;2023-07-31T03:03:48;13.80;99.90
4058;DHT22;2044;48.692;9.020;2023-07-31T03:06:15;13.80;99.90
4058;DHT22;2044;48.692;9.020;2023-07-31T03:08:41;13.80;99.90
4058;DHT22;2044;48.692;9.020;2023-07-31T03:11:09;13.80;99.90
4058;DHT22;2044;48.692;9.020;2023-07-31T03:13:36;13.80;99.90
4058;DHT22;2044;48.692;9.020;2023-07-31T03:16:03;13.80;99.90
4058;DHT22;2044;48.692;9.020;2023-07-31T03:18:30;13.70;99.90
4058;DHT22;2044;48.692;9.020;2023-07-31T03:20:57;13.70;99.90
4058;DHT22;2044;48.692;9.020;2023-07-31T03:23:23;13.60;99.90
4058;DHT22;2044;48.692;9.020;2023-07-31T03:25:57;13.50;99.90
4058;DHT22;2044;48.692;9.020;2023-07-31T03:28:25;13.60;99.90
4058;DHT22;2044;48.692;9.020;2023-07-31T03:30:53;13.50;99.90
4058;DHT22;2044;48.692;9.020;2023-07-31T03:33:19;13.50;99.90
4058;DHT22;2044;48.692;9.020;2023-07-31T03:35:46;13.50;99.90
4058;DHT22;2044;48.692;9.020;2023-07-31T03:38:13;13.50;99.90
4058;DHT22;2044;48.692;9.020;2023-07-31T03:40:40;13.60;99.90
4058;DHT22;2044;48.692;9.020;2023-07-31T03:43:07;13.50;99.90
4058;DHT22;2044;48.692;9.020;2023-07-31T03:45:35;13.50;99.90
4058;DHT22;2044;48.692;9.020;2023-07-31T03:48:01;13.50;99.90
4058;DHT22;2044;48.692;9.020;2023-07-31T03:50:28;13.50;99.90
4058;DHT22;2044;48.692;9.020;2023-07-31T03:52:55;13.60;99.90
4058;DHT22;2044;48.692;9.020;2023-07-31T03:55:22;13.70;99.90
4058;DHT22;2044;48.692;9.020;2023-07-31T03:57:48;13.80;99.90
4058;DHT22;2044;48.692;9.020;2023-07-31T04:00:15;13.90;99.90
4058;DHT22;2044;48.692;9.020;2023-07-31T04:02:43;13.90;99.90
4058;DHT22;2044;48.692;9.020;2023-07-31T04:05:10;13.90;99.90
4058;DHT22;2044;48.692;9.020;2023-07-31T04:07:37;13.90;99.90
4058;DHT22;2044;48.692;9.020;2023-07-31T04:10:04;13.90;99.90
4058;DHT22;2044;48.692;9.020;2023-07-31T04:12:31;14.00;99.90
4058;DHT22;2044;48.692;9.020;2023-07-31T04:14:58;14.00;99.90
4058;DHT22;2044;48.692;9.020;2023-07-31T04:17:24;14.10;99.90
4058;DHT22;2044;48.692;9.020;2023-07-31T04:19:52;14.20;99.90
4058;DHT22;2044;48.692;9.020;2023-07-31T04:22:19;14.20;99.90
4058;DHT22;2044;48.692;9.020;2023-07-31T04:24:46;14.30;99.90
4058;DHT22;2044;48.692;9.020;2023-07-31T04:27:13;14.30;99.90
4058;DHT22;2044;48.692;9.020;2023-07-31T04:29:39;14.30;99.90
4058;DHT22;2044;48.692;9.020;2023-07-31T04:32:08;14.30;99.90
4058;DHT22;2044;48.692;9.020;2023-07-31T04:34:34;14.40;99.90
4058;DHT22;2044;48.692;9.020;2023-07-31T04:37:04;14.50;99.90
4058;DHT22;2044;48.692;9.020;2023-07-31T04:39:30;14.60;99.90
4058;DHT22;2044;48.692;9.020;2023-07-31T04:41:57;14.60;99.90
4058;DHT22;2044;48.692;9.020;2023-07-31T04:44:24;14.60;99.90
4058;DHT22;2044;48.692;9.020;2023-07-31T04:46:51;14.80;99.90
4058;DHT22;2044;48.692;9.020;2023-07-31T04:49:18;14.80;99.90
4058;DHT22;2044;48.692;9.020;2023-07-31T04:51:46;14.70;99.90
4058;DHT22;2044;48.692;9.020;2023-07-31T04:54:14;14.70;99.90
4058;DHT22;2044;48.692;9.020;2023-07-31T04:56:41;14.70;99.90
4058;DHT22;2044;48.692;9.020;2023-07-31T04:59:08;14.70;99.90
4058;DHT22;2044;48.692;9.020;2023-07-31T05:01:36;14.70;99.90
4058;DHT22;2044;48.692;9.020;2023-07-31T05:04:04;14.60;99.90
4058;DHT22;2044;48.692;9.020;2023-07-31T05:06:30;14.70;99.90
4058;DHT22;2044;48.692;9.020;2023-07-31T05:08:57;14.70;99.90
4058;DHT22;2044;48.692;9.020;2023-07-31T05:11:34;14.80;99.90
4058;DHT22;2044;48.692;9.020;2023-07-31T05:14:01;14.90;99.90
4058;DHT22;2044;48.692;9.020;2023-07-31T05:16:28;15.00;99.90
4058;DHT22;2044;48.692;9.020;2023-07-31T05:18:56;15.00;99.90
4058;DHT22;2044;48.692;9.020;2023-07-31T05:23:52;15.00;99.90
4058;DHT22;2044;48.692;9.020;2023-07-31T05:26:19;15.20;99.90
4058;DHT22;2044;48.692;9.020;2023-07-31T05:28:47;15.40;99.90
4058;DHT22;2044;48.692;9.020;2023-07-31T05:31:14;15.40;99.90
4058;DHT22;2044;48.692;9.020;2023-07-31T05:33:41;15.90;99.90
4058;DHT22;2044;48.692;9.020;2023-07-31T05:36:08;15.90;99.90
4058;DHT22;2044;48.692;9.020;2023-07-31T05:38:35;15.90;99.90
4058;DHT22;2044;48.692;9.020;2023-07-31T05:45:59;16.00;99.90
4058;DHT22;2044;48.692;9.020;2023-07-31T05:48:26;16.20;99.90
4058;DHT22;2044;48.692;9.020;2023-07-31T05:50:54;16.30;99.90
4058;DHT22;2044;48.692;9.020;2023-07-31T05:53:21;16.20;99.90
4058;DHT22;2044;48.692;9.020;2023-07-31T05:55:52;16.40;99.90
4058;DHT22;2044;48.692;9.020;2023-07-31T05:58:19;16.30;99.90
4058;DHT22;2044;48.692;9.020;2023-07-31T06:00:45;17.10;99.90
4058;DHT22;2044;48.692;9.020;2023-07-31T06:03:14;16.40;99.90
4058;DHT22;2044;48.692;9.020;2023-07-31T06:08:08;17.00;99.90
4058;DHT22;2044;48.692;9.020;2023-07-31T08:11:43;21.70;99.90
4058;DHT22;2044;48.692;9.020;2023-07-31T08:19:06;21.10;99.90
4058;DHT22;2044;48.692;9.020;2023-07-31T08:21:33;21.40;99.90
4058;DHT22;2044;48.692;9.020;2023-07-31T08:24:00;21.90;99.90
4058;DHT22;2044;48.692;9.020;2023-07-31T08:26:27;24.20;99.90
4058;DHT22;2044;48.692;9.020;2023-07-31T08:28:55;25.10;99.90
4058;DHT22;2044;48.692;9.020;2023-07-31T08:31:24;25.90;99.90
4058;DHT22;2044;48.692;9.020;2023-07-31T08:36:20;24.90;99.90
4058;DHT22;2044;48.692;9.020;2023-07-31T08:41:15;24.70;99.90
4058;DHT22;2044;48.692;9.020;2023-07-31T08:43:44;23.70;99.90
4058;DHT22;2044;48.692;9.020;2023-07-31T08:48:42;21.80;99.90
4058;DHT22;2044;48.692;9.020;2023-07-31T08:51:09;21.60;99.90
4058;DHT22;2044;48.692;9.020;2023-07-31T08:53:36;21.00;99.90
4058;DHT22;2044;48.692;9.020;2023-07-31T08:56:03;20.30;99.90
4058;DHT22;2044;48.692;9.020;2023-07-31T08:58:31;20.20;99.90
4058;DHT22;2044;48.692;9.020;2023-07-31T09:01:01;20.10;99.90
4058;DHT22;2044;48.692;9.020;2023-07-31T09:03:34;20.00;99.90
4058;DHT22;2044;48.692;9.020;2023-07-31T09:06:02;20.30;99.90
4058;DHT22;2044;48.692;9.020;2023-07-31T09:08:31;20.10;99.90
4058;DHT22;2044;48.692;9.020;2023-07-31T09:10:59;19.90;99.90
4058;DHT22;2044;48.692;9.020;2023-07-31T09:13:29;20.30;99.90
4058;DHT22;2044;48.692;9.020;2023-07-31T09:15:56;20.60;99.90
4058;DHT22;2044;48.692;9.020;2023-07-31T09:18:23;21.50;99.90
4058;DHT22;2044;48.692;9.020;2023-07-31T09:21:02;22.40;99.90
4058;DHT22;2044;48.692;9.020;2023-07-31T09:23:40;22.40;99.90
4058;DHT22;2044;48.692;9.020;2023-07-31T09:26:07;21.70;99.90
4058;DHT22;2044;48.692;9.020;2023-07-31T09:28:34;21.70;99.90
4058;DHT22;2044;48.692;9.020;2023-07-31T09:31:01;21.80;99.90
4058;DHT22;2044;48.692;9.020;2023-07-31T09:33:28;21.60;99.90
4058;DHT22;2044;48.692;9.020;2023-07-31T09:35:58;21.30;99.90
4058;DHT22;2044;48.692;9.020;2023-07-31T09:40:55;20.80;99.90
4058;DHT22;2044;48.692;9.020;2023-07-31T09:43:25;20.90;99.90
4058;DHT22;2044;48.692;9.020;2023-07-31T09:45:55;21.20;99.90
4058;DHT22;2044;48.692;9.020;2023-07-31T09:48:24;21.60;99.90
4058;DHT22;2044;48.692;9.020;2023-07-31T09:50:53;22.00;99.90
4058;DHT22;2044;48.692;9.020;2023-07-31T09:53:29;21.20;99.90
4058;DHT22;2044;48.692;9.020;2023-07-31T09:55:58;20.50;99.90
4058;DHT22;2044;48.692;9.020;2023-07-31T09:58:28;20.40;99.90
4058;DHT22;2044;48.692;9.020;2023-07-31T10:00:55;21.00;99.90
4058;DHT22;2044;48.692;9.020;2023-07-31T10:03:24;21.40;99.90
4058;DHT22;2044;48.692;9.020;2023-07-31T10:05:53;21.50;99.90
4058;DHT22;2044;48.692;9.020;2023-07-31T10:08:26;21.20;99.90
4058;DHT22;2044;48.692;9.020;2023-07-31T10:10:58;21.80;99.90
4058;DHT22;2044;48.692;9.020;2023-07-31T10:13:27;21.70;99.90
4058;DHT22;2044;48.692;9.020;2023-07-31T10:15:58;22.30;99.90
4058;DHT22;2044;48.692;9.020;2023-07-31T10:18:25;23.30;99.90
4058;DHT22;2044;48.692;9.020;2023-07-31T10:20:53;23.70;99.90
4058;DHT22;2044;48.692;9.020;2023-07-31T10:23:22;22.80;99.90
4058;DHT22;2044;48.692;9.020;2023-07-31T10:25:50;22.30;99.90
4058;DHT22;2044;48.692;9.020;2023-07-31T10:28:21;23.20;99.90
4058;DHT22;2044;48.692;9.020;2023-07-31T10:30:49;23.70;99.90
4058;DHT22;2044;48.692;9.020;2023-07-31T10:33:17;24.20;99.90
4058;DHT22;2044;48.692;9.020;2023-07-31T10:35:46;23.60;99.90
4058;DHT22;2044;48.692;9.020;2023-07-31T10:38:13;24.30;99.90
4058;DHT22;2044;48.692;9.020;2023-07-31T10:43:08;23.80;99.90
4058;DHT22;2044;48.692;9.020;2023-07-31T10:48:57;23.60;99.90
4058;DHT22;2044;48.692;9.020;2023-07-31T10:51:33;23.50;99.90
4058;DHT22;2044;48.692;9.020;2023-07-31T10:54:11;23.50;99.90
4058;DHT22;2044;48.692;9.020;2023-07-31T10:56:39;24.30;99.90
4058;DHT22;2044;48.692;9.020;2023-07-31T10:59:06;24.40;99.90
4058;DHT22;2044;48.692;9.020;2023-07-31T11:01:55;23.80;99.90
4058;DHT22;2044;48.692;9.020;2023-07-31T11:04:26;23.70;99.90
4058;DHT22;2044;48.692;9.020;2023-07-31T11:06:56;24.30;99.90
4058;DHT22;2044;48.692;9.020;2023-07-31T11:09:25;24.40;99.90
4058;DHT22;2044;48.692;9.020;2023-07-31T11:14:21;24.50;99.90
4058;DHT22;2044;48.692;9.020;2023-07-31T11:16:49;23.50;99.90
4058;DHT22;2044;48.692;9.020;2023-07-31T11:19:21;23.30;99.90
4058;DHT22;2044;48.692;9.020;2023-07-31T11:21:50;23.00;99.90
4058;DHT22;2044;48.692;9.020;2023-07-31T11:24:18;22.70;99.90
4058;DHT22;2044;48.692;9.020;2023-07-31T11:26:49;22.60;99.90
4058;DHT22;2044;48.692;9.020;2023-07-31T11:29:16;22.50;99.90
4058;DHT22;2044;48.692;9.020;2023-07-31T11:31:44;22.10;99.90
4058;DHT22;2044;48.692;9.020;2023-07-31T11:34:11;22.50;99.90
4058;DHT22;2044;48.692;9.020;2023-07-31T11:36:37;21.80;99.90
4058;DHT22;2044;48.692;9.020;2023-07-31T11:39:07;21.90;99.90
4058;DHT22;2044;48.692;9.020;2023-07-31T11:41:34;22.50;99.90
4058;DHT22;2044;48.692;9.020;2023-07-31T11:44:01;22.10;99.90
4058;DHT22;2044;48.692;9.020;2023-07-31T11:46:30;21.70;99.90
4058;DHT22;2044;48.692;9.020;2023-07-31T11:48:59;21.70;99.90
4058;DHT22;2044;48.692;9.020;2023-07-31T11:51:27;21.60;99.90
4058;DHT22;2044;48.692;9.020;2023-07-31T11:53:57;21.60;99.90
4058;DHT22;2044;48.692;9.020;2023-07-31T11:56:26;21.50;99.90
4058;DHT22;2044;48.692;9.020;2023-07-31T11:58:57;21.50;99.90
4058;DHT22;2044;48.692;9.020;2023-07-31T12:01:24;21.40;99.90
4058;DHT22;2044;48.692;9.020;2023-07-31T12:03:53;21.70;99.90
4058;DHT22;2044;48.692;9.020;2023-07-31T12:06:21;21.10;99.90
4058;DHT22;2044;48.692;9.020;2023-07-31T12:08:47;21.20;99.90
4058;DHT22;2044;48.692;9.020;2023-07-31T12:11:14;21.10;99.90
4058;DHT22;2044;48.692;9.020;2023-07-31T12:13:44;21.30;99.90
4058;DHT22;2044;48.692;9.020;2023-07-31T12:16:11;21.40;99.90
4058;DHT22;2044;48.692;9.020;2023-07-31T12:18:39;21.40;99.90
4058;DHT22;2044;48.692;9.020;2023-07-31T12:21:07;21.60;99.90
4058;DHT22;2044;48.692;9.020;2023-07-31T12:23:36;21.70;99.90
4058;DHT22;2044;48.692;9.020;2023-07-31T12:26:05;21.70;99.90
4058;DHT22;2044;48.692;9.020;2023-07-31T12:28:35;21.70;99.90
4058;DHT22;2044;48.692;9.020;2023-07-31T12:31:05;21.90;99.90
4058;DHT22;2044;48.692;9.020;2023-07-31T12:33:33;22.20;99.90
4058;DHT22;2044;48.692;9.020;2023-07-31T12:36:02;22.00;99.90
4058;DHT22;2044;48.692;9.020;2023-07-31T12:38:30;22.20;99.90
4058;DHT22;2044;48.692;9.020;2023-07-31T12:40:57;22.40;99.90
4058;DHT22;2044;48.692;9.020;2023-07-31T12:43:24;22.50;99.90
4058;DHT22;2044;48.692;9.020;2023-07-31T12:48:20;23.10;99.90
4058;DHT22;2044;48.692;9.020;2023-07-31T12:50:47;22.00;99.90
4058;DHT22;2044;48.692;9.020;2023-07-31T12:53:16;23.80;99.90
4058;DHT22;2044;48.692;9.020;2023-07-31T12:55:43;24.50;99.90
4058;DHT22;2044;48.692;9.020;2023-07-31T12:58:10;25.10;99.90
4058;DHT22;2044;48.692;9.020;2023-07-31T13:00:38;25.10;99.90
4058;DHT22;2044;48.692;9.020;2023-07-31T13:03:05;25.70;99.90
4058;DHT22;2044;48.692;9.020;2023-07-31T13:05:33;26.70;99.90
4058;DHT22;2044;48.692;9.020;2023-07-31T13:08:00;26.60;99.90
4058;DHT22;2044;48.692;9.020;2023-07-31T13:10:29;26.70;99.90
4058;DHT22;2044;48.692;9.020;2023-07-31T13:12:58;26.50;99.90
4058;DHT22;2044;48.692;9.020;2023-07-31T13:15:45;26.10;99.90
4058;DHT22;2044;48.692;9.020;2023-07-31T13:20:45;24.90;99.90
4058;DHT22;2044;48.692;9.020;2023-07-31T13:23:12;24.10;99.90
4058;DHT22;2044;48.692;9.020;2023-07-31T13:28:08;24.30;99.90
4058;DHT22;2044;48.692;9.020;2023-07-31T13:30:35;24.50;99.90
4058;DHT22;2044;48.692;9.020;2023-07-31T13:33:02;25.90;99.90
4058;DHT22;2044;48.692;9.020;2023-07-31T13:35:29;24.40;99.90
4058;DHT22;2044;48.692;9.020;2023-07-31T13:37:59;24.20;99.90
4058;DHT22;2044;48.692;9.020;2023-07-31T13:40:27;24.90;99.90
4058;DHT22;2044;48.692;9.020;2023-07-31T13:42:54;24.70;99.90
4058;DHT22;2044;48.692;9.020;2023-07-31T13:47:49;24.60;99.90
4058;DHT22;2044;48.692;9.020;2023-07-31T13:50:24;24.80;99.90
4058;DHT22;2044;48.692;9.020;2023-07-31T13:52:51;25.10;99.90
4058;DHT22;2044;48.692;9.020;2023-07-31T13:55:33;24.30;99.90
4058;DHT22;2044;48.692;9.020;2023-07-31T13:58:00;23.80;99.90
4058;DHT22;2044;48.692;9.020;2023-07-31T14:00:27;24.00;99.90
4058;DHT22;2044;48.692;9.020;2023-07-31T14:02:55;23.60;99.90
4058;DHT22;2044;48.692;9.020;2023-07-31T14:05:22;23.70;99.90
4058;DHT22;2044;48.692;9.020;2023-07-31T14:07:49;23.10;99.90
4058;DHT22;2044;48.692;9.020;2023-07-31T14:10:16;23.20;99.90
4058;DHT22;2044;48.692;9.020;2023-07-31T14:12:44;23.30;99.90
4058;DHT22;2044;48.692;9.020;2023-07-31T14:15:11;23.20;99.90
4058;DHT22;2044;48.692;9.020;2023-07-31T14:17:38;22.60;99.90
4058;DHT22;2044;48.692;9.020;2023-07-31T14:20:06;23.90;99.90
4058;DHT22;2044;48.692;9.020;2023-07-31T14:22:33;22.10;99.90
4058;DHT22;2044;48.692;9.020;2023-07-31T14:25:01;21.90;99.90
4058;DHT22;2044;48.692;9.020;2023-07-31T14:27:28;22.10;99.90
4058;DHT22;2044;48.692;9.020;2023-07-31T14:29:56;22.10;99.90
4058;DHT22;2044;48.692;9.020;2023-07-31T14:34:50;22.50;99.90
4058;DHT22;2044;48.692;9.020;2023-07-31T14:37:17;23.00;99.90
4058;DHT22;2044;48.692;9.020;2023-07-31T14:39:44;22.90;99.90
4058;DHT22;2044;48.692;9.020;2023-07-31T14:42:11;23.10;99.90
4058;DHT22;2044;48.692;9.020;2023-07-31T14:44:38;23.10;99.90
4058;DHT22;2044;48.692;9.020;2023-07-31T14:47:07;23.10;99.90
4058;DHT22;2044;48.692;9.020;2023-07-31T14:49:33;23.30;99.90
4058;DHT22;2044;48.692;9.020;2023-07-31T14:52:00;23.70;99.90
4058;DHT22;2044;48.692;9.020;2023-07-31T14:54:27;22.90;99.90
4058;DHT22;2044;48.692;9.020;2023-07-31T14:56:54;23.30;99.90
4058;DHT22;2044;48.692;9.020;2023-07-31T15:01:51;22.90;99.90
4058;DHT22;2044;48.692;9.020;2023-07-31T15:04:20;23.30;99.90
4058;DHT22;2044;48.692;9.020;2023-07-31T15:07:15;23.40;99.90
4058;DHT22;2044;48.692;9.020;2023-07-31T15:09:51;23.40;99.90
4058;DHT22;2044;48.692;9.020;2023-07-31T15:12:19;23.50;99.90
4058;DHT22;2044;48.692;9.020;2023-07-31T15:14:48;23.30;99.90
4058;DHT22;2044;48.692;9.020;2023-07-31T15:17:15;23.50;99.90
4058;DHT22;2044;48.692;9.020;2023-07-31T15:19:46;23.50;99.90
4058;DHT22;2044;48.692;9.020;2023-07-31T15:22:14;23.10;99.90
4058;DHT22;2044;48.692;9.020;2023-07-31T15:24:43;23.10;99.90
4058;DHT22;2044;48.692;9.020;2023-07-31T15:27:42;23.50;99.90
4058;DHT22;2044;48.692;9.020;2023-07-31T15:30:11;23.70;99.90
4058;DHT22;2044;48.692;9.020;2023-07-31T15:32:38;23.90;99.90
4058;DHT22;2044;48.692;9.020;2023-07-31T15:35:09;23.70;99.90
4058;DHT22;2044;48.692;9.020;2023-07-31T15:37:37;23.30;99.90
4058;DHT22;2044;48.692;9.020;2023-07-31T15:40:08;24.60;99.90
4058;DHT22;2044;48.692;9.020;2023-07-31T15:42:36;23.00;99.90
4058;DHT22;2044;48.692;9.020;2023-07-31T15:45:08;22.90;99.90
4058;DHT22;2044;48.692;9.020;2023-07-31T15:47:38;23.00;99.90
4058;DHT22;2044;48.692;9.020;2023-07-31T15:52:40;22.40;99.90
4058;DHT22;2044;48.692;9.020;2023-07-31T15:55:08;23.10;99.90
4058;DHT22;2044;48.692;9.020;2023-07-31T16:00:03;22.80;99.90
4058;DHT22;2044;48.692;9.020;2023-07-31T16:02:30;23.10;99.90
4058;DHT22;2044;48.692;9.020;2023-07-31T16:04:57;23.20;99.90
4058;DHT22;2044;48.692;9.020;2023-07-31T16:07:26;24.00;99.90
4058;DHT22;2044;48.692;9.020;2023-07-31T16:09:53;23.90;99.90
4058;DHT22;2044;48.692;9.020;2023-07-31T16:12:21;24.00;99.90
4058;DHT22;2044;48.692;9.020;2023-07-31T16:14:49;23.70;99.90
4058;DHT22;2044;48.692;9.020;2023-07-31T16:17:18;23.40;99.90
4058;DHT22;2044;48.692;9.020;2023-07-31T16:19:51;23.00;99.90
4058;DHT22;2044;48.692;9.020;2023-07-31T16:22:30;22.80;99.90
4058;DHT22;2044;48.692;9.020;2023-07-31T16:24:57;22.70;99.90
4058;DHT22;2044;48.692;9.020;2023-07-31T16:27:26;22.30;99.90
4058;DHT22;2044;48.692;9.020;2023-07-31T16:30:08;22.20;99.90
4058;DHT22;2044;48.692;9.020;2023-07-31T16:32:41;22.00;99.90
4058;DHT22;2044;48.692;9.020;2023-07-31T16:52:32;21.80;99.90
4058;DHT22;2044;48.692;9.020;2023-07-31T16:54:59;21.70;99.90
4058;DHT22;2044;48.692;9.020;2023-07-31T16:57:26;21.60;99.90
4058;DHT22;2044;48.692;9.020;2023-07-31T16:59:52;21.60;99.90
4058;DHT22;2044;48.692;9.020;2023-07-31T17:02:19;21.50;99.90
4058;DHT22;2044;48.692;9.020;2023-07-31T17:04:46;21.50;99.90
4058;DHT22;2044;48.692;9.020;2023-07-31T17:07:13;21.40;99.90
4058;DHT22;2044;48.692;9.020;2023-07-31T17:09:41;21.40;99.90
4058;DHT22;2044;48.692;9.020;2023-07-31T17:12:08;21.30;99.90
4058;DHT22;2044;48.692;9.020;2023-07-31T17:14:34;21.20;99.90
4058;DHT22;2044;48.692;9.020;2023-07-31T17:17:01;21.20;99.90
4058;DHT22;2044;48.692;9.020;2023-07-31T17:19:28;21.20;99.90
4058;DHT22;2044;48.692;9.020;2023-07-31T17:21:54;21.30;99.90
4058;DHT22;2044;48.692;9.020;2023-07-31T17:24:21;21.30;99.90
4058;DHT22;2044;48.692;9.020;2023-07-31T17:26:49;21.20;99.90
4058;DHT22;2044;48.692;9.020;2023-07-31T17:29:16;21.20;99.90
4058;DHT22;2044;48.692;9.020;2023-07-31T17:34:10;21.20;99.90
4058;DHT22;2044;48.692;9.020;2023-07-31T17:39:04;21.10;99.90
4058;DHT22;2044;48.692;9.020;2023-07-31T17:41:30;21.10;99.90
4058;DHT22;2044;48.692;9.020;2023-07-31T17:43:58;21.10;99.90
4058;DHT22;2044;48.692;9.020;2023-07-31T17:46:25;21.90;99.90
4058;DHT22;2044;48.692;9.020;2023-07-31T17:48:52;21.10;99.90
4058;DHT22;2044;48.692;9.020;2023-07-31T17:51:19;21.10;99.90
4058;DHT22;2044;48.692;9.020;2023-07-31T17:53:46;21.00;99.90
4058;DHT22;2044;48.692;9.020;2023-07-31T17:56:12;21.10;99.90
4058;DHT22;2044;48.692;9.020;2023-07-31T17:58:39;21.00;99.90
4058;DHT22;2044;48.692;9.020;2023-07-31T18:01:07;21.00;99.90
4058;DHT22;2044;48.692;9.020;2023-07-31T18:03:40;20.90;99.90
4058;DHT22;2044;48.692;9.020;2023-07-31T18:10:09;20.90;99.90
4058;DHT22;2044;48.692;9.020;2023-07-31T18:12:37;20.10;99.90
4058;DHT22;2044;48.692;9.020;2023-07-31T18:15:05;20.80;99.90
4058;DHT22;2044;48.692;9.020;2023-07-31T18:24:03;20.60;99.90
4058;DHT22;2044;48.692;9.020;2023-07-31T18:26:33;20.50;99.90
4058;DHT22;2044;48.692;9.020;2023-07-31T18:29:04;20.50;99.90
4058;DHT22;2044;48.692;9.020;2023-07-31T18:32:44;20.90;99.90
4058;DHT22;2044;48.692;9.020;2023-07-31T18:35:27;20.20;99.90
4058;DHT22;2044;48.692;9.020;2023-07-31T18:37:54;19.90;99.90
4058;DHT22;2044;48.692;9.020;2023-07-31T18:40:27;19.50;99.90
4058;DHT22;2044;48.692;9.020;2023-07-31T18:42:55;19.30;99.90
4058;DHT22;2044;48.692;9.020;2023-07-31T18:45:23;18.90;99.90
4058;DHT22;2044;48.692;9.020;2023-07-31T18:47:52;18.50;99.90
4058;DHT22;2044;48.692;9.020;2023-07-31T18:50:27;18.30;99.90
4058;DHT22;2044;48.692;9.020;2023-07-31T18:52:58;18.00;99.90
4058;DHT22;2044;48.692;9.020;2023-07-31T18:55:35;17.90;99.90
4058;DHT22;2044;48.692;9.020;2023-07-31T19:00:34;17.80;99.90
4058;DHT22;2044;48.692;9.020;2023-07-31T19:03:01;17.70;99.90
4058;DHT22;2044;48.692;9.020;2023-07-31T19:05:29;19.40;99.90
4058;DHT22;2044;48.692;9.020;2023-07-31T19:08:11;17.40;99.90
4058;DHT22;2044;48.692;9.020;2023-07-31T19:10:39;17.60;99.90
4058;DHT22;2044;48.692;9.020;2023-07-31T19:13:05;17.30;99.90
4058;DHT22;2044;48.692;9.020;2023-07-31T19:17:59;17.20;99.90
4058;DHT22;2044;48.692;9.020;2023-07-31T19:20:26;17.10;99.90
4058;DHT22;2044;48.692;9.020;2023-07-31T19:22:53;17.10;99.90
4058;DHT22;2044;48.692;9.020;2023-07-31T19:25:20;16.90;99.90
4058;DHT22;2044;48.692;9.020;2023-07-31T19:27:48;16.70;99.90
4058;DHT22;2044;48.692;9.020;2023-07-31T19:30:15;16.60;99.90
4058;DHT22;2044;48.692;9.020;2023-07-31T19:32:42;16.60;99.90
4058;DHT22;2044;48.692;9.020;2023-07-31T19:35:10;16.50;99.90
4058;DHT22;2044;48.692;9.020;2023-07-31T19:37:37;16.40;99.90
4058;DHT22;2044;48.692;9.020;2023-07-31T19:40:04;16.60;99.90
4058;DHT22;2044;48.692;9.020;2023-07-31T19:42:31;16.30;99.90
4058;DHT22;2044;48.692;9.020;2023-07-31T19:45:02;16.20;99.90
4058;DHT22;2044;48.692;9.020;2023-07-31T19:47:29;16.20;99.90
4058;DHT22;2044;48.692;9.020;2023-07-31T19:49:56;17.70;99.90